createdAt,value
2023-03-22T00:01:24.846Z,82.95
2023-03-22T00:03:53.399Z,82.65
2023-03-22T00:06:21.191Z,80.67
2023-03-22T00:08:50.501Z,81.24
2023-03-22T00:11:18.658Z,79.36
2023-03-22T00:13:46.935Z,80.96
2023-03-22T00:16:14.818Z,82.36
2023-03-22T00:18:43.671Z,81.62
2023-03-22T00:21:13.461Z,82.90
2023-03-22T00:23:41.296Z,84.79
2023-03-22T00:26:09.204Z,83.99
2023-03-22T00:28:36.712Z,85.15
2023-03-22T00:31:05.522Z,86.04
2023-03-22T00:33:34.193Z,86.05
2023-03-22T00:36:05.594Z,81.74
2023-03-22T00:38:42.546Z,82.32
2023-03-22T00:41:12.865Z,80.12
2023-03-22T00:43:40.731Z,80.41
2023-03-22T00:46:08.422Z,80.44
2023-03-22T00:48:36.100Z,81.68
2023-03-22T00:51:05.454Z,81.69
2023-03-22T00:53:34.277Z,83.05
2023-03-22T00:56:01.741Z,82.01
2023-03-22T00:58:29.216Z,81.85
2023-03-22T01:00:56.822Z,82.18
2023-03-22T01:03:24.722Z,81.00
2023-03-22T01:05:55.509Z,81.18
2023-03-22T01:08:24.681Z,83.57
2023-03-22T01:10:52.349Z,84.14
2023-03-22T01:13:19.888Z,85.67
2023-03-22T01:15:51.097Z,86.50
2023-03-22T01:18:19.018Z,86.34
2023-03-22T01:20:46.489Z,87.47
2023-03-22T01:23:13.966Z,87.01
2023-03-22T01:25:42.759Z,87.15
2023-03-22T01:28:10.398Z,87.61
2023-03-22T01:30:40.473Z,86.50
2023-03-22T01:33:08.586Z,87.26
2023-03-22T01:35:36.485Z,87.61
2023-03-22T01:38:04.162Z,86.99
2023-03-22T01:40:31.637Z,88.13
2023-03-22T01:43:00.534Z,90.07
2023-03-22T01:45:36.545Z,90.90
2023-03-22T01:48:07.731Z,90.03
2023-03-22T01:50:37.430Z,90.64
2023-03-22T01:53:05.387Z,90.35
2023-03-22T01:55:34.270Z,89.78
2023-03-22T01:58:03.949Z,89.60
2023-03-22T02:00:31.894Z,88.76
2023-03-22T02:02:59.413Z,87.34
2023-03-22T02:05:27.494Z,86.39
2023-03-22T02:07:54.981Z,84.39
2023-03-22T02:10:24.265Z,82.89
2023-03-22T02:13:02.021Z,82.22
2023-03-22T02:15:34.741Z,81.54
2023-03-22T02:18:11.623Z,83.12
2023-03-22T02:21:14.233Z,83.33
2023-03-22T02:24:07.602Z,84.58
2023-03-22T02:27:07.180Z,84.58
2023-03-22T02:29:40.477Z,84.32
2023-03-22T02:32:43.264Z,85.16
2023-03-22T02:35:22.470Z,84.28
2023-03-22T02:38:28.709Z,86.23
2023-03-22T02:41:03.398Z,86.17
2023-03-22T02:43:38.551Z,84.26
2023-03-22T02:46:09.737Z,83.64
2023-03-22T02:48:41.703Z,81.93
2023-03-22T02:51:11.521Z,81.74
2023-03-22T02:53:43.322Z,81.15
2023-03-22T02:56:14.304Z,82.04
2023-03-22T02:58:45.612Z,80.89
2023-03-22T03:01:18.040Z,80.33
2023-03-22T03:03:48.152Z,81.07
2023-03-22T03:06:18.105Z,79.81
2023-03-22T03:08:47.588Z,78.93
2023-03-22T03:11:16.388Z,79.07
2023-03-22T03:13:43.870Z,79.28
2023-03-22T03:16:13.161Z,78.92
2023-03-22T03:18:45.599Z,79.93
2023-03-22T03:21:22.108Z,83.01
2023-03-22T03:23:55.541Z,84.38
2023-03-22T03:26:29.394Z,84.53
2023-03-22T03:28:59.590Z,83.25
2023-03-22T03:31:32.684Z,83.25
2023-03-22T03:34:06.568Z,80.80
2023-03-22T03:36:37.783Z,79.49
2023-03-22T03:39:08.081Z,79.70
2023-03-22T03:41:37.049Z,79.13
2023-03-22T03:44:04.966Z,79.63
2023-03-22T03:46:32.531Z,79.87
2023-03-22T03:49:00.137Z,81.20
2023-03-22T03:51:28.382Z,80.64
2023-03-22T03:53:55.872Z,80.79
2023-03-22T03:56:23.348Z,79.04
2023-03-22T03:58:52.141Z,79.44
2023-03-22T04:01:20.674Z,79.48
2023-03-22T04:03:50.573Z,81.02
2023-03-22T04:06:18.108Z,80.61
2023-03-22T04:08:45.859Z,79.53
2023-03-22T04:11:13.366Z,79.75
2023-03-22T04:13:40.835Z,79.50
2023-03-22T04:16:10.651Z,78.85
2023-03-22T04:18:38.870Z,79.84
2023-03-22T04:21:07.022Z,80.27
2023-03-22T04:23:34.493Z,80.25
2023-03-22T04:26:01.963Z,79.91
2023-03-22T04:28:29.452Z,82.27
2023-03-22T04:30:57.344Z,79.81
2023-03-22T04:33:26.427Z,80.67
2023-03-22T04:35:56.834Z,81.63
2023-03-22T04:38:25.241Z,82.52
2023-03-22T04:40:52.768Z,80.81
2023-03-22T04:43:20.244Z,80.00
2023-03-22T04:45:48.774Z,80.49
2023-03-22T04:48:17.553Z,80.64
2023-03-22T04:50:46.370Z,79.88
2023-03-22T04:53:14.177Z,79.21
2023-03-22T04:55:41.664Z,78.64
2023-03-22T04:58:09.238Z,79.18
2023-03-22T05:00:37.667Z,79.05
2023-03-22T05:03:05.831Z,79.85
2023-03-22T05:05:33.481Z,79.79
2023-03-22T05:08:02.253Z,77.86
2023-03-22T05:10:29.723Z,80.24
2023-03-22T05:12:57.233Z,83.22
2023-03-22T05:15:24.697Z,82.22
2023-03-22T05:17:52.190Z,84.45
2023-03-22T05:20:19.663Z,81.84
2023-03-22T05:22:50.534Z,82.98
2023-03-22T05:25:19.389Z,83.78
2023-03-22T05:27:46.877Z,84.78
2023-03-22T05:30:15.518Z,83.86
2023-03-22T05:32:43.840Z,82.54
2023-03-22T05:35:11.582Z,82.68
2023-03-22T05:37:39.310Z,80.63
2023-03-22T05:40:10.071Z,79.86
2023-03-22T05:42:39.061Z,80.90
2023-03-22T05:45:07.552Z,80.34
2023-03-22T05:47:36.112Z,81.19
2023-03-22T05:50:03.693Z,81.22
2023-03-22T05:52:31.166Z,79.83
2023-03-22T05:54:58.667Z,81.66
2023-03-22T05:57:26.421Z,80.33
2023-03-22T05:59:55.212Z,80.05
2023-03-22T06:02:22.814Z,79.01
2023-03-22T06:04:52.062Z,79.88
2023-03-22T06:07:19.749Z,78.82
2023-03-22T06:09:47.796Z,79.34
2023-03-22T06:12:17.082Z,81.14
2023-03-22T06:14:44.755Z,80.56
2023-03-22T06:17:13.520Z,80.01
2023-03-22T06:19:41.006Z,79.10
2023-03-22T06:22:08.746Z,78.69
2023-03-22T06:24:36.326Z,80.10
2023-03-22T06:27:03.836Z,83.51
2023-03-22T06:29:31.539Z,84.31
2023-03-22T06:31:59.014Z,81.25
2023-03-22T06:34:27.792Z,79.58
2023-03-22T06:36:55.455Z,79.63
2023-03-22T06:39:23.452Z,81.39
2023-03-22T06:41:51.607Z,81.38
2023-03-22T06:44:19.532Z,79.36
2023-03-22T06:46:47.000Z,80.65
2023-03-22T06:49:14.496Z,80.10
2023-03-22T06:51:43.286Z,80.18
2023-03-22T06:54:12.593Z,81.03
2023-03-22T06:56:40.083Z,80.64
2023-03-22T06:59:07.616Z,84.10
2023-03-22T07:01:35.186Z,84.08
2023-03-22T07:04:02.751Z,80.75
2023-03-22T07:06:30.823Z,82.38
2023-03-22T07:08:59.675Z,83.91
2023-03-22T07:11:27.198Z,83.03
2023-03-22T07:13:55.150Z,83.42
2023-03-22T07:16:23.155Z,82.99
2023-03-22T07:18:50.742Z,83.31
2023-03-22T07:21:18.201Z,84.35
2023-03-22T07:23:45.719Z,83.79
2023-03-22T07:26:14.546Z,84.53
2023-03-22T07:28:44.476Z,84.51
2023-03-22T07:31:13.090Z,84.71
2023-03-22T07:33:40.944Z,84.28
2023-03-22T07:36:09.686Z,82.42
2023-03-22T07:38:37.618Z,84.07
2023-03-22T07:41:05.983Z,81.73
2023-03-22T07:43:47.364Z,79.81
2023-03-22T07:46:20.403Z,81.71
2023-03-22T07:48:47.903Z,80.40
2023-03-22T07:51:15.396Z,79.66
2023-03-22T07:53:42.868Z,79.14
2023-03-22T07:56:10.788Z,79.79
2023-03-22T07:58:39.671Z,79.99
2023-03-22T08:01:09.206Z,79.60
2023-03-22T08:03:37.534Z,79.82
2023-03-22T08:06:07.675Z,78.52
2023-03-22T08:08:35.569Z,78.80
2023-03-22T08:11:03.187Z,79.43
2023-03-22T08:13:31.013Z,78.32
2023-03-22T08:16:00.851Z,77.56
2023-03-22T08:18:28.532Z,78.50
2023-03-22T08:20:57.047Z,78.32
2023-03-22T08:23:38.465Z,78.29
2023-03-22T08:26:08.883Z,78.61
2023-03-22T08:28:36.474Z,76.89
2023-03-22T08:31:13.214Z,77.34
2023-03-22T08:33:41.466Z,76.21
2023-03-22T08:36:12.099Z,77.40
2023-03-22T08:38:39.568Z,77.06
2023-03-22T08:41:07.260Z,77.23
2023-03-22T08:43:34.800Z,76.73
2023-03-22T08:46:02.376Z,76.60
2023-03-22T08:48:31.855Z,76.23
2023-03-22T08:50:59.418Z,76.44
2023-03-22T08:53:26.916Z,76.13
2023-03-22T08:55:58.072Z,76.22
2023-03-22T08:58:25.605Z,75.93
2023-03-22T09:00:53.127Z,76.10
2023-03-22T09:03:20.839Z,75.41
2023-03-22T09:05:49.622Z,76.00
2023-03-22T09:08:19.422Z,75.88
2023-03-22T09:10:51.248Z,75.47
2023-03-22T09:13:18.951Z,74.99
2023-03-22T09:15:46.497Z,73.00
2023-03-22T09:18:14.568Z,74.08
2023-03-22T09:20:42.705Z,74.60
2023-03-22T09:23:11.872Z,74.45
2023-03-22T09:25:39.626Z,72.94
2023-03-22T09:28:07.718Z,74.56
2023-03-22T09:30:36.087Z,73.92
2023-03-22T09:33:03.811Z,71.48
2023-03-22T09:35:32.208Z,74.21
2023-03-22T09:38:00.035Z,72.36
2023-03-22T09:40:31.396Z,73.72
2023-03-22T09:43:00.184Z,73.36
2023-03-22T09:45:37.887Z,72.85
2023-03-22T09:48:07.089Z,71.21
2023-03-22T09:50:37.115Z,72.53
2023-03-22T09:53:04.610Z,70.08
2023-03-22T09:55:38.876Z,70.61
2023-03-22T09:58:11.885Z,71.93
2023-03-22T10:00:42.205Z,71.23
2023-03-22T10:03:21.026Z,70.97
2023-03-22T10:05:51.494Z,70.22
2023-03-22T10:08:26.847Z,70.99
2023-03-22T10:10:55.673Z,70.71
2023-03-22T10:13:28.666Z,70.58
2023-03-22T10:15:58.979Z,70.15
2023-03-22T10:18:29.461Z,70.06
2023-03-22T10:21:01.525Z,68.90
2023-03-22T10:23:32.731Z,69.06
2023-03-22T10:26:02.152Z,68.73
2023-03-22T10:28:33.340Z,67.40
2023-03-22T10:31:00.922Z,63.36
2023-03-22T10:33:36.611Z,67.31
2023-03-22T10:36:05.620Z,65.66
2023-03-22T10:38:35.597Z,66.67
2023-03-22T10:41:04.784Z,67.57
2023-03-22T10:43:34.464Z,66.71
2023-03-22T10:46:04.729Z,67.11
2023-03-22T10:48:35.450Z,65.60
2023-03-22T10:51:04.168Z,66.03
2023-03-22T10:53:37.788Z,63.67
2023-03-22T10:56:11.190Z,64.80
2023-03-22T10:58:38.700Z,65.34
2023-03-22T11:01:09.276Z,65.63
2023-03-22T11:03:41.152Z,65.17
2023-03-22T11:06:11.037Z,64.68
2023-03-22T11:08:44.956Z,64.73
2023-03-22T11:11:21.920Z,64.31
2023-03-22T11:13:55.584Z,61.56
2023-03-22T11:16:24.314Z,62.41
2023-03-22T11:18:52.049Z,60.24
2023-03-22T11:21:21.137Z,60.84
2023-03-22T11:23:55.827Z,61.94
2023-03-22T11:26:30.460Z,60.55
2023-03-22T11:29:11.918Z,60.52
2023-03-22T11:31:57.311Z,60.18
2023-03-22T11:34:27.599Z,59.74
2023-03-22T11:36:56.946Z,61.43
2023-03-22T11:39:28.197Z,58.77
2023-03-22T11:41:58.610Z,58.57
2023-03-22T11:44:27.401Z,60.00
2023-03-22T11:46:57.833Z,58.67
2023-03-22T11:49:27.586Z,58.66
2023-03-22T11:51:56.301Z,58.13
2023-03-22T11:54:29.435Z,58.38
2023-03-22T11:57:01.294Z,58.34
2023-03-22T11:59:30.444Z,58.41
2023-03-22T12:02:01.644Z,57.62
2023-03-22T12:04:31.185Z,58.74
2023-03-22T12:07:00.993Z,58.42
2023-03-22T12:09:35.637Z,58.06
2023-03-22T12:12:05.934Z,57.27
2023-03-22T12:14:35.997Z,56.35
2023-03-22T12:17:07.262Z,57.22
2023-03-22T12:19:43.471Z,57.79
2023-03-22T12:22:14.657Z,57.66
2023-03-22T12:24:43.042Z,57.42
2023-03-22T12:27:17.269Z,58.01
2023-03-22T12:29:48.435Z,57.51
2023-03-22T12:32:18.861Z,56.78
2023-03-22T12:34:48.804Z,57.51
2023-03-22T12:37:21.197Z,55.09
2023-03-22T12:39:51.800Z,56.52
2023-03-22T12:42:24.965Z,57.30
2023-03-22T12:45:04.216Z,54.62
2023-03-22T12:47:36.689Z,55.52
2023-03-22T12:50:07.364Z,55.38
2023-03-22T12:52:45.358Z,54.68
2023-03-22T12:55:21.273Z,54.65
2023-03-22T12:57:54.316Z,53.41
2023-03-22T13:00:23.343Z,53.51
2023-03-22T13:02:55.974Z,53.45
2023-03-22T13:05:28.452Z,52.54
2023-03-22T13:07:58.864Z,52.83
2023-03-22T13:10:47.354Z,53.19
2023-03-22T13:13:34.942Z,52.25
2023-03-22T13:16:15.491Z,52.75
2023-03-22T13:18:59.845Z,52.44
2023-03-22T13:21:29.280Z,52.57
2023-03-22T13:24:01.546Z,51.03
2023-03-22T13:26:34.957Z,53.50
2023-03-22T13:29:11.163Z,52.27
2023-03-22T13:31:42.471Z,52.04
2023-03-22T13:34:15.427Z,52.43
2023-03-22T13:36:50.557Z,53.14
2023-03-22T13:39:18.337Z,51.24
2023-03-22T13:41:49.390Z,52.17
2023-03-22T13:44:26.809Z,50.53
2023-03-22T13:46:58.768Z,50.06
2023-03-22T13:49:48.007Z,50.10
2023-03-22T13:52:40.303Z,50.98
2023-03-22T13:55:18.855Z,51.40
2023-03-22T13:57:58.868Z,51.49
2023-03-22T14:00:48.031Z,51.61
2023-03-22T14:03:25.480Z,50.17
2023-03-22T14:06:02.798Z,52.00
2023-03-22T14:08:31.331Z,51.41
2023-03-22T14:11:04.106Z,51.65
2023-03-22T14:13:34.341Z,51.60
2023-03-22T14:16:08.829Z,50.23
2023-03-22T14:18:38.234Z,51.33
2023-03-22T14:21:08.109Z,51.20
